sensor_id;sensor_type;location;lat;lon;timestamp;temperature;humidity
23291;DHT22;11814;44.686;10.842;2022-11-12T00:00:27;11.50;99.90
23291;DHT22;11814;44.686;10.842;2022-11-12T00:02:53;11.50;99.90
23291;DHT22;11814;44.686;10.842;2022-11-12T00:05:19;11.40;99.90
23291;DHT22;11814;44.686;10.842;2022-11-12T00:07:45;11.40;99.90
23291;DHT22;11814;44.686;10.842;2022-11-12T00:10:10;11.40;99.90
23291;DHT22;11814;44.686;10.842;2022-11-12T00:12:36;11.40;99.90
23291;DHT22;11814;44.686;10.842;2022-11-12T00:15:02;11.40;99.90
23291;DHT22;11814;44.686;10.842;2022-11-12T00:17:28;11.40;99.90
23291;DHT22;11814;44.686;10.842;2022-11-12T00:19:53;11.30;99.90
23291;DHT22;11814;44.686;10.842;2022-11-12T00:22:20;11.20;99.90
23291;DHT22;11814;44.686;10.842;2022-11-12T00:24:46;11.10;99.90
23291;DHT22;11814;44.686;10.842;2022-11-12T00:27:12;11.10;99.90
23291;DHT22;11814;44.686;10.842;2022-11-12T00:29:38;11.20;99.90
23291;DHT22;11814;44.686;10.842;2022-11-12T00:32:08;11.20;99.90
23291;DHT22;11814;44.686;10.842;2022-11-12T00:34:34;11.30;99.90
23291;DHT22;11814;44.686;10.842;2022-11-12T00:37:00;11.40;99.90
23291;DHT22;11814;44.686;10.842;2022-11-12T00:39:26;11.40;99.90
23291;DHT22;11814;44.686;10.842;2022-11-12T00:41:52;11.50;99.90
23291;DHT22;11814;44.686;10.842;2022-11-12T00:44:18;11.50;99.90
23291;DHT22;11814;44.686;10.842;2022-11-12T00:46:43;11.50;99.90
23291;DHT22;11814;44.686;10.842;2022-11-12T00:49:09;11.60;99.90
23291;DHT22;11814;44.686;10.842;2022-11-12T00:51:35;11.60;99.90
23291;DHT22;11814;44.686;10.842;2022-11-12T00:54:01;11.60;99.90
23291;DHT22;11814;44.686;10.842;2022-11-12T00:56:27;11.60;99.90
23291;DHT22;11814;44.686;10.842;2022-11-12T00:58:52;11.60;99.90
23291;DHT22;11814;44.686;10.842;2022-11-12T01:01:18;11.60;99.90
23291;DHT22;11814;44.686;10.842;2022-11-12T01:03:44;11.50;99.90
23291;DHT22;11814;44.686;10.842;2022-11-12T01:06:19;11.60;99.90
23291;DHT22;11814;44.686;10.842;2022-11-12T01:08:45;11.50;99.90
23291;DHT22;11814;44.686;10.842;2022-11-12T01:13:40;11.50;99.90
23291;DHT22;11814;44.686;10.842;2022-11-12T01:16:15;11.40;99.90
23291;DHT22;11814;44.686;10.842;2022-11-12T01:18:41;11.30;99.90
23291;DHT22;11814;44.686;10.842;2022-11-12T01:21:08;11.20;99.90
23291;DHT22;11814;44.686;10.842;2022-11-12T01:23:35;11.20;99.90
23291;DHT22;11814;44.686;10.842;2022-11-12T01:26:06;11.20;99.90
23291;DHT22;11814;44.686;10.842;2022-11-12T01:28:33;11.30;99.90
23291;DHT22;11814;44.686;10.842;2022-11-12T01:31:23;11.30;99.90
23291;DHT22;11814;44.686;10.842;2022-11-12T01:33:53;11.30;99.90
23291;DHT22;11814;44.686;10.842;2022-11-12T01:36:19;11.30;99.90
23291;DHT22;11814;44.686;10.842;2022-11-12T01:38:46;11.30;99.90
23291;DHT22;11814;44.686;10.842;2022-11-12T01:41:18;11.20;99.90
23291;DHT22;11814;44.686;10.842;2022-11-12T01:43:44;11.20;99.90
23291;DHT22;11814;44.686;10.842;2022-11-12T01:46:21;11.20;99.90
23291;DHT22;11814;44.686;10.842;2022-11-12T01:48:53;11.30;99.90
23291;DHT22;11814;44.686;10.842;2022-11-12T01:51:23;11.30;99.90
23291;DHT22;11814;44.686;10.842;2022-11-12T01:53:52;11.30;99.90
23291;DHT22;11814;44.686;10.842;2022-11-12T01:56:20;11.30;99.90
23291;DHT22;11814;44.686;10.842;2022-11-12T01:58:50;11.20;99.90
23291;DHT22;11814;44.686;10.842;2022-11-12T02:01:16;11.20;99.90
23291;DHT22;11814;44.686;10.842;2022-11-12T02:03:42;11.20;99.90
23291;DHT22;11814;44.686;10.842;2022-11-12T02:06:11;11.30;99.90
23291;DHT22;11814;44.686;10.842;2022-11-12T02:08:39;11.20;99.90
23291;DHT22;11814;44.686;10.842;2022-11-12T02:11:14;11.20;99.90
23291;DHT22;11814;44.686;10.842;2022-11-12T02:13:41;11.20;99.90
23291;DHT22;11814;44.686;10.842;2022-11-12T02:16:45;11.20;99.90
23291;DHT22;11814;44.686;10.842;2022-11-12T02:19:13;11.20;99.90
23291;DHT22;11814;44.686;10.842;2022-11-12T02:21:40;11.20;99.90
23291;DHT22;11814;44.686;10.842;2022-11-12T02:26:54;11.20;99.90
23291;DHT22;11814;44.686;10.842;2022-11-12T02:29:21;11.20;99.90
23291;DHT22;11814;44.686;10.842;2022-11-12T02:31:47;11.20;99.90
23291;DHT22;11814;44.686;10.842;2022-11-12T02:34:13;11.20;99.90
23291;DHT22;11814;44.686;10.842;2022-11-12T02:36:39;11.10;99.90
23291;DHT22;11814;44.686;10.842;2022-11-12T02:39:05;11.20;99.90
23291;DHT22;11814;44.686;10.842;2022-11-12T02:41:30;11.10;99.90
23291;DHT22;11814;44.686;10.842;2022-11-12T02:43:56;11.00;99.90
23291;DHT22;11814;44.686;10.842;2022-11-12T02:46:22;11.00;99.90
23291;DHT22;11814;44.686;10.842;2022-11-12T02:48:48;11.00;99.90
23291;DHT22;11814;44.686;10.842;2022-11-12T02:51:14;10.90;99.90
23291;DHT22;11814;44.686;10.842;2022-11-12T02:53:39;10.80;99.90
23291;DHT22;11814;44.686;10.842;2022-11-12T02:56:05;10.70;99.90
23291;DHT22;11814;44.686;10.842;2022-11-12T02:58:31;10.80;99.90
23291;DHT22;11814;44.686;10.842;2022-11-12T03:00:57;10.80;99.90
23291;DHT22;11814;44.686;10.842;2022-11-12T03:03:23;10.80;99.90
23291;DHT22;11814;44.686;10.842;2022-11-12T03:05:58;10.90;99.90
23291;DHT22;11814;44.686;10.842;2022-11-12T03:08:24;10.90;99.90
23291;DHT22;11814;44.686;10.842;2022-11-12T03:10:50;10.90;99.90
23291;DHT22;11814;44.686;10.842;2022-11-12T03:13:16;10.80;99.90
23291;DHT22;11814;44.686;10.842;2022-11-12T03:15:41;10.60;99.90
23291;DHT22;11814;44.686;10.842;2022-11-12T03:18:07;10.60;99.90
23291;DHT22;11814;44.686;10.842;2022-11-12T03:20:33;10.50;99.90
23291;DHT22;11814;44.686;10.842;2022-11-12T03:23:05;10.50;99.90
23291;DHT22;11814;44.686;10.842;2022-11-12T03:25:31;10.40;99.90
23291;DHT22;11814;44.686;10.842;2022-11-12T03:27:59;10.40;99.90
23291;DHT22;11814;44.686;10.842;2022-11-12T03:30:29;10.40;99.90
23291;DHT22;11814;44.686;10.842;2022-11-12T03:32:55;10.50;99.90
23291;DHT22;11814;44.686;10.842;2022-11-12T03:35:21;10.50;99.90
23291;DHT22;11814;44.686;10.842;2022-11-12T03:37:48;10.50;99.90
23291;DHT22;11814;44.686;10.842;2022-11-12T03:40:15;10.50;99.90
23291;DHT22;11814;44.686;10.842;2022-11-12T03:42:45;10.40;99.90
23291;DHT22;11814;44.686;10.842;2022-11-12T03:45:12;10.40;99.90
23291;DHT22;11814;44.686;10.842;2022-11-12T03:47:45;10.30;99.90
23291;DHT22;11814;44.686;10.842;2022-11-12T03:50:13;10.10;99.90
23291;DHT22;11814;44.686;10.842;2022-11-12T03:52:47;10.10;99.90
23291;DHT22;11814;44.686;10.842;2022-11-12T03:55:14;10.10;99.90
23291;DHT22;11814;44.686;10.842;2022-11-12T03:57:40;10.10;99.90
23291;DHT22;11814;44.686;10.842;2022-11-12T04:00:07;10.10;99.90
23291;DHT22;11814;44.686;10.842;2022-11-12T04:02:33;10.10;99.90
23291;DHT22;11814;44.686;10.842;2022-11-12T04:04:59;10.00;99.90
23291;DHT22;11814;44.686;10.842;2022-11-12T04:07:43;10.10;99.90
23291;DHT22;11814;44.686;10.842;2022-11-12T04:10:28;10.10;99.90
23291;DHT22;11814;44.686;10.842;2022-11-12T04:12:55;10.20;99.90
23291;DHT22;11814;44.686;10.842;2022-11-12T04:15:39;10.20;99.90
23291;DHT22;11814;44.686;10.842;2022-11-12T04:18:05;10.20;99.90
23291;DHT22;11814;44.686;10.842;2022-11-12T04:20:49;10.20;99.90
23291;DHT22;11814;44.686;10.842;2022-11-12T04:23:34;10.20;99.90
23291;DHT22;11814;44.686;10.842;2022-11-12T04:26:00;10.20;99.90
23291;DHT22;11814;44.686;10.842;2022-11-12T04:28:44;10.20;99.90
23291;DHT22;11814;44.686;10.842;2022-11-12T04:31:29;10.20;99.90
23291;DHT22;11814;44.686;10.842;2022-11-12T04:33:55;10.10;99.90
23291;DHT22;11814;44.686;10.842;2022-11-12T04:36:41;10.00;99.90
23291;DHT22;11814;44.686;10.842;2022-11-12T04:39:06;9.90;99.90
23291;DHT22;11814;44.686;10.842;2022-11-12T04:41:32;9.90;99.90
23291;DHT22;11814;44.686;10.842;2022-11-12T04:44:16;10.00;99.90
23291;DHT22;11814;44.686;10.842;2022-11-12T04:47:01;10.00;99.90
23291;DHT22;11814;44.686;10.842;2022-11-12T04:49:27;10.00;99.90
23291;DHT22;11814;44.686;10.842;2022-11-12T04:51:52;10.10;99.90
23291;DHT22;11814;44.686;10.842;2022-11-12T04:54:31;10.10;99.90
23291;DHT22;11814;44.686;10.842;2022-11-12T04:56:57;10.10;99.90
23291;DHT22;11814;44.686;10.842;2022-11-12T04:59:23;10.10;99.90
23291;DHT22;11814;44.686;10.842;2022-11-12T05:01:48;10.10;99.90
23291;DHT22;11814;44.686;10.842;2022-11-12T05:04:14;10.10;99.90
23291;DHT22;11814;44.686;10.842;2022-11-12T05:06:40;10.00;99.90
23291;DHT22;11814;44.686;10.842;2022-11-12T05:09:26;10.00;99.90
23291;DHT22;11814;44.686;10.842;2022-11-12T05:11:53;9.90;99.90
23291;DHT22;11814;44.686;10.842;2022-11-12T05:14:23;9.90;99.90
23291;DHT22;11814;44.686;10.842;2022-11-12T05:16:49;9.90;99.90
23291;DHT22;11814;44.686;10.842;2022-11-12T05:19:16;9.90;99.90
23291;DHT22;11814;44.686;10.842;2022-11-12T05:21:42;9.90;99.90
23291;DHT22;11814;44.686;10.842;2022-11-12T05:24:26;9.90;99.90
23291;DHT22;11814;44.686;10.842;2022-11-12T05:26:52;10.00;99.90
23291;DHT22;11814;44.686;10.842;2022-11-12T05:29:18;10.00;99.90
23291;DHT22;11814;44.686;10.842;2022-11-12T05:31:44;10.00;99.90
23291;DHT22;11814;44.686;10.842;2022-11-12T05:34:10;10.10;99.90
23291;DHT22;11814;44.686;10.842;2022-11-12T05:36:36;10.10;99.90
23291;DHT22;11814;44.686;10.842;2022-11-12T05:39:02;10.20;99.90
23291;DHT22;11814;44.686;10.842;2022-11-12T05:41:29;10.20;99.90
23291;DHT22;11814;44.686;10.842;2022-11-12T05:43:55;10.20;99.90
23291;DHT22;11814;44.686;10.842;2022-11-12T05:46:21;10.30;99.90
23291;DHT22;11814;44.686;10.842;2022-11-12T05:48:46;10.30;99.90
23291;DHT22;11814;44.686;10.842;2022-11-12T05:51:12;10.30;99.90
23291;DHT22;11814;44.686;10.842;2022-11-12T05:53:40;10.30;99.90
23291;DHT22;11814;44.686;10.842;2022-11-12T05:56:07;10.30;99.90
23291;DHT22;11814;44.686;10.842;2022-11-12T05:58:34;10.20;99.90
23291;DHT22;11814;44.686;10.842;2022-11-12T06:00:59;10.20;99.90
23291;DHT22;11814;44.686;10.842;2022-11-12T06:03:25;10.20;99.90
23291;DHT22;11814;44.686;10.842;2022-11-12T06:05:51;10.20;99.90
23291;DHT22;11814;44.686;10.842;2022-11-12T06:08:17;10.20;99.90
23291;DHT22;11814;44.686;10.842;2022-11-12T06:10:51;10.10;99.90
23291;DHT22;11814;44.686;10.842;2022-11-12T06:13:18;10.10;99.90
23291;DHT22;11814;44.686;10.842;2022-11-12T06:15:43;10.00;99.90
23291;DHT22;11814;44.686;10.842;2022-11-12T06:18:09;10.10;99.90
23291;DHT22;11814;44.686;10.842;2022-11-12T06:20:35;10.10;99.90
23291;DHT22;11814;44.686;10.842;2022-11-12T06:23:01;10.10;99.90
23291;DHT22;11814;44.686;10.842;2022-11-12T06:25:28;10.10;99.90
23291;DHT22;11814;44.686;10.842;2022-11-12T06:27:54;10.20;99.90
23291;DHT22;11814;44.686;10.842;2022-11-12T06:30:20;10.30;99.90
23291;DHT22;11814;44.686;10.842;2022-11-12T06:32:49;10.30;99.90
23291;DHT22;11814;44.686;10.842;2022-11-12T06:35:16;10.30;99.90
23291;DHT22;11814;44.686;10.842;2022-11-12T06:37:45;10.30;99.90
23291;DHT22;11814;44.686;10.842;2022-11-12T06:40:11;10.30;99.90
23291;DHT22;11814;44.686;10.842;2022-11-12T06:42:37;10.30;99.90
23291;DHT22;11814;44.686;10.842;2022-11-12T06:45:03;10.30;99.90
23291;DHT22;11814;44.686;10.842;2022-11-12T06:47:29;10.40;99.90
23291;DHT22;11814;44.686;10.842;2022-11-12T06:49:55;10.40;99.90
23291;DHT22;11814;44.686;10.842;2022-11-12T06:52:20;10.40;99.90
23291;DHT22;11814;44.686;10.842;2022-11-12T06:54:46;10.50;99.90
23291;DHT22;11814;44.686;10.842;2022-11-12T06:57:12;10.50;99.90
23291;DHT22;11814;44.686;10.842;2022-11-12T06:59:38;10.60;99.90
23291;DHT22;11814;44.686;10.842;2022-11-12T07:02:03;10.60;99.90
23291;DHT22;11814;44.686;10.842;2022-11-12T07:04:30;10.60;99.90
23291;DHT22;11814;44.686;10.842;2022-11-12T07:06:56;10.60;99.90
23291;DHT22;11814;44.686;10.842;2022-11-12T07:09:21;10.80;99.90
23291;DHT22;11814;44.686;10.842;2022-11-12T07:11:47;10.80;99.90
23291;DHT22;11814;44.686;10.842;2022-11-12T07:14:13;10.90;99.90
23291;DHT22;11814;44.686;10.842;2022-11-12T07:16:38;10.90;99.90
23291;DHT22;11814;44.686;10.842;2022-11-12T07:19:04;11.00;99.90
23291;DHT22;11814;44.686;10.842;2022-11-12T07:21:30;11.10;99.90
23291;DHT22;11814;44.686;10.842;2022-11-12T07:23:55;11.10;99.90
23291;DHT22;11814;44.686;10.842;2022-11-12T07:26:24;11.10;99.90
23291;DHT22;11814;44.686;10.842;2022-11-12T07:28:51;11.20;99.90
23291;DHT22;11814;44.686;10.842;2022-11-12T07:31:18;11.20;99.90
23291;DHT22;11814;44.686;10.842;2022-11-12T07:33:44;11.30;99.90
23291;DHT22;11814;44.686;10.842;2022-11-12T07:36:12;11.40;99.90
23291;DHT22;11814;44.686;10.842;2022-11-12T07:38:40;11.40;99.90
23291;DHT22;11814;44.686;10.842;2022-11-12T07:41:11;11.50;99.90
23291;DHT22;11814;44.686;10.842;2022-11-12T07:43:39;11.60;99.90
23291;DHT22;11814;44.686;10.842;2022-11-12T07:46:11;11.60;99.90
23291;DHT22;11814;44.686;10.842;2022-11-12T07:48:37;11.70;99.90
23291;DHT22;11814;44.686;10.842;2022-11-12T07:53:33;11.80;99.90
23291;DHT22;11814;44.686;10.842;2022-11-12T07:56:00;11.90;99.90
23291;DHT22;11814;44.686;10.842;2022-11-12T07:58:28;12.00;99.90
23291;DHT22;11814;44.686;10.842;2022-11-12T08:00:54;12.00;99.90
23291;DHT22;11814;44.686;10.842;2022-11-12T08:03:20;12.10;99.90
23291;DHT22;11814;44.686;10.842;2022-11-12T08:05:46;12.20;99.90
23291;DHT22;11814;44.686;10.842;2022-11-12T08:08:12;12.20;99.90
23291;DHT22;11814;44.686;10.842;2022-11-12T08:10:38;12.20;99.90
23291;DHT22;11814;44.686;10.842;2022-11-12T08:13:04;12.30;99.90
23291;DHT22;11814;44.686;10.842;2022-11-12T08:15:30;12.40;99.90
23291;DHT22;11814;44.686;10.842;2022-11-12T08:17:56;12.40;99.90
23291;DHT22;11814;44.686;10.842;2022-11-12T08:20:22;12.40;99.90
23291;DHT22;11814;44.686;10.842;2022-11-12T08:22:48;12.40;99.90
23291;DHT22;11814;44.686;10.842;2022-11-12T08:25:14;12.40;99.90
23291;DHT22;11814;44.686;10.842;2022-11-12T08:27:40;12.50;99.90
23291;DHT22;11814;44.686;10.842;2022-11-12T08:30:07;12.50;99.90
23291;DHT22;11814;44.686;10.842;2022-11-12T08:32:33;12.60;99.90
23291;DHT22;11814;44.686;10.842;2022-11-12T08:34:58;12.60;99.90
23291;DHT22;11814;44.686;10.842;2022-11-12T08:37:24;12.70;99.90
23291;DHT22;11814;44.686;10.842;2022-11-12T08:39:50;12.80;99.90
23291;DHT22;11814;44.686;10.842;2022-11-12T08:42:16;12.80;99.90
23291;DHT22;11814;44.686;10.842;2022-11-12T08:44:41;12.90;99.90
23291;DHT22;11814;44.686;10.842;2022-11-12T08:47:07;12.90;99.90
23291;DHT22;11814;44.686;10.842;2022-11-12T08:49:33;12.90;99.90
23291;DHT22;11814;44.686;10.842;2022-11-12T08:51:59;13.00;99.90
23291;DHT22;11814;44.686;10.842;2022-11-12T08:54:24;13.00;99.90
23291;DHT22;11814;44.686;10.842;2022-11-12T08:56:50;13.00;99.90
23291;DHT22;11814;44.686;10.842;2022-11-12T08:59:16;13.10;99.90
23291;DHT22;11814;44.686;10.842;2022-11-12T09:01:42;13.20;99.90
23291;DHT22;11814;44.686;10.842;2022-11-12T09:04:07;13.30;99.90
23291;DHT22;11814;44.686;10.842;2022-11-12T09:06:33;13.30;99.90
23291;DHT22;11814;44.686;10.842;2022-11-12T09:08:59;13.40;99.90
23291;DHT22;11814;44.686;10.842;2022-11-12T09:11:25;13.40;99.90
23291;DHT22;11814;44.686;10.842;2022-11-12T09:13:53;13.50;99.90
23291;DHT22;11814;44.686;10.842;2022-11-12T09:16:19;13.50;99.90
23291;DHT22;11814;44.686;10.842;2022-11-12T09:18:48;13.60;99.90
23291;DHT22;11814;44.686;10.842;2022-11-12T09:21:14;13.60;99.90
23291;DHT22;11814;44.686;10.842;2022-11-12T09:23:40;13.70;99.90
23291;DHT22;11814;44.686;10.842;2022-11-12T09:26:06;13.80;99.90
23291;DHT22;11814;44.686;10.842;2022-11-12T09:28:32;13.80;99.90
23291;DHT22;11814;44.686;10.842;2022-11-12T09:30:58;13.90;99.90
23291;DHT22;11814;44.686;10.842;2022-11-12T09:33:26;14.00;99.90
23291;DHT22;11814;44.686;10.842;2022-11-12T09:35:54;14.00;99.90
23291;DHT22;11814;44.686;10.842;2022-11-12T09:38:20;14.00;99.90
23291;DHT22;11814;44.686;10.842;2022-11-12T09:44:04;14.10;99.90
23291;DHT22;11814;44.686;10.842;2022-11-12T09:49:38;14.20;99.90
23291;DHT22;11814;44.686;10.842;2022-11-12T09:52:05;14.20;99.90
23291;DHT22;11814;44.686;10.842;2022-11-12T09:54:35;14.20;99.90
23291;DHT22;11814;44.686;10.842;2022-11-12T09:57:01;14.30;99.90
23291;DHT22;11814;44.686;10.842;2022-11-12T09:59:33;14.30;99.90
23291;DHT22;11814;44.686;10.842;2022-11-12T10:07:47;14.30;99.90
23291;DHT22;11814;44.686;10.842;2022-11-12T10:10:23;14.30;99.90
23291;DHT22;11814;44.686;10.842;2022-11-12T10:24:26;14.30;99.90
23291;DHT22;11814;44.686;10.842;2022-11-12T10:26:56;14.30;99.90
23291;DHT22;11814;44.686;10.842;2022-11-12T10:29:30;14.40;99.90
23291;DHT22;11814;44.686;10.842;2022-11-12T10:32:00;14.40;99.90
23291;DHT22;11814;44.686;10.842;2022-11-12T10:34:28;14.40;99.90
23291;DHT22;11814;44.686;10.842;2022-11-12T10:39:43;14.40;99.90
23291;DHT22;11814;44.686;10.842;2022-11-12T10:42:15;14.40;99.90
23291;DHT22;11814;44.686;10.842;2022-11-12T10:44:42;14.40;99.90
23291;DHT22;11814;44.686;10.842;2022-11-12T10:47:36;14.40;99.90
23291;DHT22;11814;44.686;10.842;2022-11-12T10:50:30;14.40;99.90
23291;DHT22;11814;44.686;10.842;2022-11-12T10:53:03;14.40;99.90
23291;DHT22;11814;44.686;10.842;2022-11-12T10:55:39;14.40;99.90
23291;DHT22;11814;44.686;10.842;2022-11-12T10:58:18;14.40;99.90
23291;DHT22;11814;44.686;10.842;2022-11-12T11:00:58;14.40;99.90
23291;DHT22;11814;44.686;10.842;2022-11-12T11:03:35;14.40;99.90
23291;DHT22;11814;44.686;10.842;2022-11-12T11:06:05;14.50;99.90
23291;DHT22;11814;44.686;10.842;2022-11-12T11:08:38;14.50;99.90
23291;DHT22;11814;44.686;10.842;2022-11-12T11:11:35;14.50;99.90
23291;DHT22;11814;44.686;10.842;2022-11-12T11:16:52;14.60;99.90
23291;DHT22;11814;44.686;10.842;2022-11-12T11:19:18;14.70;99.90
23291;DHT22;11814;44.686;10.842;2022-11-12T11:30:17;14.80;99.90
23291;DHT22;11814;44.686;10.842;2022-11-12T11:33:16;14.80;99.90
23291;DHT22;11814;44.686;10.842;2022-11-12T11:57:28;15.00;99.90
23291;DHT22;11814;44.686;10.842;2022-11-12T12:00:15;15.00;99.90
23291;DHT22;11814;44.686;10.842;2022-11-12T12:05:45;15.10;99.90
23291;DHT22;11814;44.686;10.842;2022-11-12T12:11:20;15.00;99.90
23291;DHT22;11814;44.686;10.842;2022-11-12T12:17:26;15.00;99.90
23291;DHT22;11814;44.686;10.842;2022-11-12T12:25:12;15.00;99.90
23291;DHT22;11814;44.686;10.842;2022-11-12T12:28:16;15.00;99.90
23291;DHT22;11814;44.686;10.842;2022-11-12T12:30:50;15.00;99.90
23291;DHT22;11814;44.686;10.842;2022-11-12T12:36:29;15.00;99.90
23291;DHT22;11814;44.686;10.842;2022-11-12T12:39:18;15.00;99.90
23291;DHT22;11814;44.686;10.842;2022-11-12T12:42:21;15.00;99.90
23291;DHT22;11814;44.686;10.842;2022-11-12T12:44:53;15.00;99.90
23291;DHT22;11814;44.686;10.842;2022-11-12T12:47:28;15.00;99.90
23291;DHT22;11814;44.686;10.842;2022-11-12T12:49:57;15.00;99.90
23291;DHT22;11814;44.686;10.842;2022-11-12T12:52:23;15.00;99.90
23291;DHT22;11814;44.686;10.842;2022-11-12T12:57:37;15.00;99.90
23291;DHT22;11814;44.686;10.842;2022-11-12T13:02:57;15.00;99.90
23291;DHT22;11814;44.686;10.842;2022-11-12T13:05:34;15.00;99.90
23291;DHT22;11814;44.686;10.842;2022-11-12T13:08:18;15.00;99.90
23291;DHT22;11814;44.686;10.842;2022-11-12T13:10:48;15.00;99.90
23291;DHT22;11814;44.686;10.842;2022-11-12T13:15:49;15.00;99.90
23291;DHT22;11814;44.686;10.842;2022-11-12T13:21:11;15.00;99.90
23291;DHT22;11814;44.686;10.842;2022-11-12T13:26:53;15.10;99.90
23291;DHT22;11814;44.686;10.842;2022-11-12T13:32:32;15.10;99.90
23291;DHT22;11814;44.686;10.842;2022-11-12T13:37:54;15.00;99.90
23291;DHT22;11814;44.686;10.842;2022-11-12T13:48:41;15.10;99.90
23291;DHT22;11814;44.686;10.842;2022-11-12T13:53:57;15.10;99.90
23291;DHT22;11814;44.686;10.842;2022-11-12T13:56:33;15.10;99.90
23291;DHT22;11814;44.686;10.842;2022-11-12T13:59:17;15.10;99.90
23291;DHT22;11814;44.686;10.842;2022-11-12T14:01:43;15.10;99.90
23291;DHT22;11814;44.686;10.842;2022-11-12T14:04:12;15.10;99.90
23291;DHT22;11814;44.686;10.842;2022-11-12T14:06:50;15.10;99.90
23291;DHT22;11814;44.686;10.842;2022-11-12T14:09:39;15.10;99.90
23291;DHT22;11814;44.686;10.842;2022-11-12T14:17:55;15.10;99.90
23291;DHT22;11814;44.686;10.842;2022-11-12T14:20:42;15.10;99.90
23291;DHT22;11814;44.686;10.842;2022-11-12T14:23:36;15.00;99.90
23291;DHT22;11814;44.686;10.842;2022-11-12T14:26:02;15.00;99.90
23291;DHT22;11814;44.686;10.842;2022-11-12T14:28:33;15.00;99.90
23291;DHT22;11814;44.686;10.842;2022-11-12T14:31:00;15.00;99.90
23291;DHT22;11814;44.686;10.842;2022-11-12T14:33:29;15.00;99.90
23291;DHT22;11814;44.686;10.842;2022-11-12T14:36:15;15.00;99.90
23291;DHT22;11814;44.686;10.842;2022-11-12T14:38:46;15.00;99.90
23291;DHT22;11814;44.686;10.842;2022-11-12T14:41:19;15.00;99.90
23291;DHT22;11814;44.686;10.842;2022-11-12T14:43:54;14.90;99.90
23291;DHT22;11814;44.686;10.842;2022-11-12T14:49:39;14.90;99.90
23291;DHT22;11814;44.686;10.842;2022-11-12T14:52:19;14.90;99.90
23291;DHT22;11814;44.686;10.842;2022-11-12T14:54:51;14.90;99.90
23291;DHT22;11814;44.686;10.842;2022-11-12T14:57:30;14.80;99.90
23291;DHT22;11814;44.686;10.842;2022-11-12T14:59:56;14.80;99.90
23291;DHT22;11814;44.686;10.842;2022-11-12T15:02:29;14.80;99.90
23291;DHT22;11814;44.686;10.842;2022-11-12T15:05:12;14.80;99.90
23291;DHT22;11814;44.686;10.842;2022-11-12T15:10:35;14.70;99.90
23291;DHT22;11814;44.686;10.842;2022-11-12T15:13:11;14.70;99.90
23291;DHT22;11814;44.686;10.842;2022-11-12T15:16:05;14.60;99.90
23291;DHT22;11814;44.686;10.842;2022-11-12T15:18:33;14.60;99.90
23291;DHT22;11814;44.686;10.842;2022-11-12T15:23:52;14.50;99.90
23291;DHT22;11814;44.686;10.842;2022-11-12T15:26:54;14.50;99.90
23291;DHT22;11814;44.686;10.842;2022-11-12T15:32:35;14.40;99.90
23291;DHT22;11814;44.686;10.842;2022-11-12T15:34:42;14.40;99.90
23291;DHT22;11814;44.686;10.842;2022-11-12T15:37:10;14.30;99.90
23291;DHT22;11814;44.686;10.842;2022-11-12T15:39:51;14.30;99.90
23291;DHT22;11814;44.686;10.842;2022-11-12T15:42:37;14.30;99.90
23291;DHT22;11814;44.686;10.842;2022-11-12T15:45:18;14.20;99.90
23291;DHT22;11814;44.686;10.842;2022-11-12T15:47:44;14.20;99.90
23291;DHT22;11814;44.686;10.842;2022-11-12T15:50:14;14.10;99.90
23291;DHT22;11814;44.686;10.842;2022-11-12T15:52:40;14.10;99.90
23291;DHT22;11814;44.686;10.842;2022-11-12T15:55:06;14.00;99.90
23291;DHT22;11814;44.686;10.842;2022-11-12T15:57:40;14.00;99.90
23291;DHT22;11814;44.686;10.842;2022-11-12T16:00:17;14.00;99.90
23291;DHT22;11814;44.686;10.842;2022-11-12T16:02:43;13.90;99.90
23291;DHT22;11814;44.686;10.842;2022-11-12T16:05:12;13.80;99.90
23291;DHT22;11814;44.686;10.842;2022-11-12T16:07:38;13.80;99.90
23291;DHT22;11814;44.686;10.842;2022-11-12T16:10:04;13.80;99.90
23291;DHT22;11814;44.686;10.842;2022-11-12T16:12:30;13.70;99.90
23291;DHT22;11814;44.686;10.842;2022-11-12T16:14:55;13.70;99.90
23291;DHT22;11814;44.686;10.842;2022-11-12T16:17:23;13.60;99.90
23291;DHT22;11814;44.686;10.842;2022-11-12T16:19:49;13.50;99.90
23291;DHT22;11814;44.686;10.842;2022-11-12T16:22:15;13.50;99.90
23291;DHT22;11814;44.686;10.842;2022-11-12T16:24:41;13.50;99.90
23291;DHT22;11814;44.686;10.842;2022-11-12T16:27:13;13.50;99.90
23291;DHT22;11814;44.686;10.842;2022-11-12T16:29:40;13.40;99.90
23291;DHT22;11814;44.686;10.842;2022-11-12T16:32:10;13.40;99.90
23291;DHT22;11814;44.686;10.842;2022-11-12T16:34:36;13.30;99.90
23291;DHT22;11814;44.686;10.842;2022-11-12T16:37:02;13.30;99.90
23291;DHT22;11814;44.686;10.842;2022-11-12T16:39:27;13.30;99.90
23291;DHT22;11814;44.686;10.842;2022-11-12T16:41:53;13.20;99.90
23291;DHT22;11814;44.686;10.842;2022-11-12T16:44:19;13.20;99.90
23291;DHT22;11814;44.686;10.842;2022-11-12T16:46:44;13.20;99.90
23291;DHT22;11814;44.686;10.842;2022-11-12T16:49:11;13.10;99.90
23291;DHT22;11814;44.686;10.842;2022-11-12T16:51:37;13.10;99.90
23291;DHT22;11814;44.686;10.842;2022-11-12T16:54:04;13.00;99.90
23291;DHT22;11814;44.686;10.842;2022-11-12T16:56:33;13.00;99.90
23291;DHT22;11814;44.686;10.842;2022-11-12T16:58:59;13.00;99.90
23291;DHT22;11814;44.686;10.842;2022-11-12T17:01:27;13.00;99.90
23291;DHT22;11814;44.686;10.842;2022-11-12T17:03:54;13.00;99.90
23291;DHT22;11814;44.686;10.842;2022-11-12T17:06:21;13.00;99.90
23291;DHT22;11814;44.686;10.842;2022-11-12T17:08:47;13.00;99.90
23291;DHT22;11814;44.686;10.842;2022-11-12T17:11:14;13.00;99.90
23291;DHT22;11814;44.686;10.842;2022-11-12T17:13:41;12.90;99.90
23291;DHT22;11814;44.686;10.842;2022-11-12T17:16:07;12.90;99.90
23291;DHT22;11814;44.686;10.842;2022-11-12T17:18:33;12.90;99.90
23291;DHT22;11814;44.686;10.842;2022-11-12T17:21:14;12.90;99.90
23291;DHT22;11814;44.686;10.842;2022-11-12T17:23:41;12.90;99.90
23291;DHT22;11814;44.686;10.842;2022-11-12T17:26:10;12.90;99.90
23291;DHT22;11814;44.686;10.842;2022-11-12T17:28:37;12.80;99.90
23291;DHT22;11814;44.686;10.842;2022-11-12T17:31:36;12.80;99.90
23291;DHT22;11814;44.686;10.842;2022-11-12T17:33:54;12.80;99.90
23291;DHT22;11814;44.686;10.842;2022-11-12T17:39:30;12.90;99.90
23291;DHT22;11814;44.686;10.842;2022-11-12T17:41:55;12.90;99.90
23291;DHT22;11814;44.686;10.842;2022-11-12T17:44:21;12.90;99.90
23291;DHT22;11814;44.686;10.842;2022-11-12T17:46:47;12.90;99.90
23291;DHT22;11814;44.686;10.842;2022-11-12T17:49:13;12.90;99.90